createdAt,value
2022-09-21T00:01:06.442Z,77102.88
2022-09-21T00:03:33.400Z,77106.75
2022-09-21T00:06:08.684Z,77095.19
2022-09-21T00:08:35.311Z,77097.09
2022-09-21T00:11:03.476Z,77104.81
2022-09-21T00:13:30.401Z,77114.44
2022-09-21T00:15:57.401Z,77114.44
2022-09-21T00:18:24.327Z,77116.38
2022-09-21T00:20:52.732Z,77112.53
2022-09-21T00:23:20.106Z,77114.44
2022-09-21T00:25:47.107Z,77124.09
2022-09-21T00:28:13.726Z,77126.00
2022-09-21T00:30:40.332Z,77131.78
2022-09-21T00:33:07.134Z,77126.00
2022-09-21T00:35:33.936Z,77133.72
2022-09-21T00:38:02.471Z,77133.72
2022-09-21T00:40:30.096Z,77141.44
2022-09-21T00:43:14.262Z,77137.56
2022-09-21T00:45:42.002Z,77137.56
2022-09-21T00:48:09.390Z,77133.72
2022-09-21T00:50:38.829Z,77141.44
2022-09-21T00:53:05.843Z,77141.44
2022-09-21T00:55:43.396Z,77139.50
2022-09-21T00:58:19.480Z,77141.44
2022-09-21T01:00:46.245Z,77141.44
2022-09-21T01:03:13.714Z,77149.13
2022-09-21T01:05:40.413Z,77160.69
2022-09-21T01:08:13.551Z,77164.56
2022-09-21T01:11:01.748Z,77174.19
2022-09-21T01:14:07.967Z,77179.97
2022-09-21T01:16:49.887Z,77181.91
2022-09-21T01:19:34.841Z,77174.19
2022-09-21T01:22:21.793Z,77176.13
2022-09-21T01:24:51.643Z,77164.56
2022-09-21T01:27:24.475Z,77168.41
2022-09-21T01:30:05.639Z,77162.63
2022-09-21T01:32:56.003Z,77156.84
2022-09-21T01:35:45.114Z,77168.41
2022-09-21T01:38:19.835Z,77162.63
2022-09-21T01:40:52.556Z,77153.00
2022-09-21T01:43:25.433Z,77160.69
2022-09-21T01:45:55.497Z,77153.00
2022-09-21T01:48:24.438Z,77156.84
2022-09-21T01:50:55.475Z,77145.28
2022-09-21T01:53:32.280Z,77137.56
2022-09-21T01:56:05.573Z,77129.88
2022-09-21T01:58:39.253Z,77126.00
2022-09-21T02:01:09.326Z,77122.16
2022-09-21T02:03:40.124Z,77110.59
2022-09-21T02:06:08.190Z,77108.66
2022-09-21T02:08:36.470Z,77099.03
2022-09-21T02:11:05.472Z,77099.03
2022-09-21T02:13:39.651Z,77097.09
2022-09-21T02:16:10.875Z,77089.38
2022-09-21T02:19:12.296Z,77091.31
2022-09-21T02:22:01.489Z,77091.31
2022-09-21T02:25:13.742Z,77093.25
2022-09-21T02:27:55.875Z,77091.31
2022-09-21T02:30:25.392Z,77097.09
2022-09-21T02:33:06.423Z,77095.19
2022-09-21T02:35:38.983Z,77104.81
2022-09-21T02:38:20.047Z,77110.59
2022-09-21T02:40:56.809Z,77126.00
2022-09-21T02:43:31.786Z,77139.50
2022-09-21T02:46:07.547Z,77153.00
2022-09-21T02:48:43.864Z,77164.56
2022-09-21T02:51:15.998Z,77158.78
2022-09-21T02:53:44.751Z,77160.69
2022-09-21T02:56:13.890Z,77156.84
2022-09-21T02:58:48.050Z,77162.63
2022-09-21T03:01:16.291Z,77168.41
2022-09-21T03:03:43.184Z,77179.97
2022-09-21T03:06:09.845Z,77183.84
2022-09-21T03:08:36.616Z,77195.41
2022-09-21T03:11:03.442Z,77187.69
2022-09-21T03:13:30.258Z,77193.47
2022-09-21T03:16:02.297Z,77195.41
2022-09-21T03:18:29.777Z,77195.41
2022-09-21T03:20:56.487Z,77191.53
2022-09-21T03:23:23.386Z,77203.09
2022-09-21T03:25:52.334Z,77199.25
2022-09-21T03:28:19.893Z,77206.97
2022-09-21T03:30:47.893Z,77210.81
2022-09-21T03:33:14.512Z,77214.66
2022-09-21T03:35:41.347Z,77224.31
2022-09-21T03:38:08.465Z,77222.38
2022-09-21T03:40:35.585Z,77233.94
2022-09-21T03:43:02.470Z,77241.66
2022-09-21T03:45:29.212Z,77249.38
2022-09-21T03:48:00.392Z,77257.06
2022-09-21T03:50:28.838Z,77270.56
2022-09-21T03:52:56.633Z,77266.72
2022-09-21T03:55:23.642Z,77274.41
2022-09-21T03:57:50.589Z,77280.19
2022-09-21T04:00:18.104Z,77280.19
2022-09-21T04:02:44.906Z,77282.13
2022-09-21T04:05:14.961Z,77287.91
2022-09-21T04:07:43.124Z,77284.06
2022-09-21T04:10:15.655Z,77295.63
2022-09-21T04:12:43.835Z,77303.34
2022-09-21T04:15:19.706Z,77305.25
2022-09-21T04:17:47.131Z,77311.03
2022-09-21T04:20:13.824Z,77324.53
2022-09-21T04:22:43.527Z,77320.69
2022-09-21T04:25:10.960Z,77316.81
2022-09-21T04:27:37.740Z,77312.97
2022-09-21T04:30:06.161Z,77312.97
2022-09-21T04:32:33.003Z,77314.91
2022-09-21T04:34:59.663Z,77311.03
2022-09-21T04:37:26.700Z,77303.34
2022-09-21T04:39:53.653Z,77307.19
2022-09-21T04:42:20.355Z,77301.41
2022-09-21T04:44:47.006Z,77293.69
2022-09-21T04:47:13.652Z,77297.53
2022-09-21T04:49:40.338Z,77293.69
2022-09-21T04:52:07.021Z,77274.41
2022-09-21T04:54:33.632Z,77245.50
2022-09-21T04:57:00.311Z,77226.22
2022-09-21T04:59:26.965Z,77230.09
2022-09-21T05:01:53.646Z,77179.97
2022-09-21T05:04:20.270Z,77072.03
2022-09-21T05:06:47.058Z,76921.72
2022-09-21T05:09:32.122Z,76748.28
2022-09-21T05:11:59.726Z,76655.78
2022-09-21T05:14:26.400Z,76638.44
2022-09-21T05:16:53.107Z,76414.91
2022-09-21T05:19:19.912Z,76438.03
2022-09-21T05:21:46.579Z,76416.81
2022-09-21T05:24:13.307Z,76401.41
2022-09-21T05:26:39.964Z,76351.31
2022-09-21T05:29:07.029Z,76318.56
2022-09-21T05:31:47.822Z,76291.56
2022-09-21T05:34:26.349Z,76220.28
2022-09-21T05:37:01.325Z,76268.44
2022-09-21T05:39:28.247Z,76285.78
2022-09-21T05:41:55.692Z,76122.00
2022-09-21T05:44:22.672Z,76100.81
2022-09-21T05:47:21.618Z,76224.13
2022-09-21T05:49:54.155Z,76058.44
2022-09-21T05:52:20.907Z,76083.47
2022-09-21T05:55:15.421Z,76100.81
2022-09-21T05:57:55.486Z,76220.28
2022-09-21T06:00:23.443Z,76145.13
2022-09-21T06:03:20.802Z,76131.66
2022-09-21T06:05:47.680Z,76141.28
2022-09-21T06:08:14.335Z,75985.22
2022-09-21T06:10:41.129Z,75998.72
2022-09-21T06:13:08.306Z,76181.75
2022-09-21T06:15:38.584Z,76008.34
2022-09-21T06:18:06.131Z,76191.38
2022-09-21T06:20:33.385Z,76016.03
2022-09-21T06:23:01.863Z,76158.63
2022-09-21T06:25:28.578Z,76318.56
2022-09-21T06:27:55.374Z,76353.25
2022-09-21T06:30:22.076Z,76339.75
2022-09-21T06:32:48.766Z,76177.91
2022-09-21T06:35:15.507Z,76100.81
2022-09-21T06:37:42.629Z,76150.91
2022-09-21T06:40:09.909Z,76204.88
2022-09-21T06:42:36.554Z,76120.09
2022-09-21T06:45:03.828Z,76129.72
2022-09-21T06:47:30.478Z,76241.47
2022-09-21T06:49:57.327Z,76235.69
2022-09-21T06:52:24.119Z,76060.38
2022-09-21T06:54:50.725Z,76133.56
2022-09-21T06:57:17.887Z,76216.44
2022-09-21T06:59:44.507Z,76316.63
2022-09-21T07:02:12.847Z,76389.84
2022-09-21T07:04:39.712Z,76212.56
2022-09-21T07:07:06.388Z,76278.09
2022-09-21T07:12:19.949Z,76278.09
2022-09-21T07:14:46.672Z,76426.47
2022-09-21T07:17:15.631Z,76258.81
2022-09-21T07:19:42.625Z,76185.59
2022-09-21T07:22:09.381Z,76424.53
2022-09-21T07:24:36.027Z,76478.50
2022-09-21T07:27:02.644Z,76528.59
2022-09-21T07:29:29.521Z,76480.41
2022-09-21T07:31:56.241Z,76509.31
2022-09-21T07:34:22.936Z,76378.28
2022-09-21T07:36:49.621Z,76295.44
2022-09-21T07:39:16.256Z,76260.75
2022-09-21T07:41:42.874Z,76333.97
2022-09-21T07:44:09.550Z,76256.91
2022-09-21T07:46:37.048Z,76347.47
2022-09-21T07:49:05.292Z,76179.81
2022-09-21T07:51:32.190Z,76222.22
2022-09-21T07:53:58.829Z,76347.47
2022-09-21T07:56:25.842Z,76191.38
2022-09-21T07:59:08.078Z,76360.94
2022-09-21T08:01:39.586Z,76333.97
2022-09-21T08:04:10.929Z,76272.31
2022-09-21T08:06:40.419Z,76301.22
2022-09-21T08:09:07.438Z,76191.38
2022-09-21T08:11:34.435Z,76251.13
2022-09-21T08:14:02.826Z,76229.91
2022-09-21T08:16:31.372Z,76228.00
2022-09-21T08:18:58.353Z,76268.44
2022-09-21T08:21:24.984Z,76228.00
2022-09-21T08:23:51.690Z,76235.69
2022-09-21T08:26:20.551Z,76214.50
2022-09-21T08:28:49.279Z,76044.94
2022-09-21T08:31:21.194Z,76206.78
2022-09-21T08:33:49.819Z,76147.06
2022-09-21T08:36:17.390Z,76208.72
2022-09-21T08:38:44.254Z,76158.63
2022-09-21T08:41:17.090Z,76116.25
2022-09-21T08:43:48.206Z,76158.63
2022-09-21T08:46:23.069Z,76262.66
2022-09-21T08:49:08.209Z,76278.09
2022-09-21T08:51:38.429Z,76251.13
2022-09-21T08:54:29.308Z,76370.56
2022-09-21T08:57:11.532Z,76397.56
2022-09-21T08:59:42.941Z,76289.66
2022-09-21T09:02:24.795Z,76231.84
2022-09-21T09:05:10.582Z,76224.13
2022-09-21T09:08:05.403Z,76328.19
2022-09-21T09:11:06.364Z,76222.22
2022-09-21T09:13:57.046Z,76258.81
2022-09-21T09:16:46.966Z,76274.22
2022-09-21T09:19:39.924Z,76337.81
2022-09-21T09:22:12.428Z,76258.81
2022-09-21T09:24:43.695Z,76278.09
2022-09-21T09:27:20.652Z,76299.28
2022-09-21T09:30:21.612Z,76312.78
2022-09-21T09:32:56.953Z,76276.16
2022-09-21T09:35:45.985Z,76228.00
2022-09-21T09:38:27.878Z,76285.78
2022-09-21T09:41:13.361Z,76285.78
2022-09-21T09:44:17.750Z,76231.84
2022-09-21T09:47:06.163Z,76166.34
2022-09-21T09:49:51.752Z,76158.63
2022-09-21T09:52:18.549Z,76116.25
2022-09-21T09:54:45.554Z,76127.78
2022-09-21T09:57:13.031Z,76062.28
2022-09-21T09:59:54.420Z,76139.34
2022-09-21T10:02:24.067Z,76104.69
2022-09-21T10:05:05.925Z,76123.94
2022-09-21T10:07:41.340Z,76177.91
2022-09-21T10:10:33.330Z,76156.69
2022-09-21T10:13:09.825Z,76224.13
2022-09-21T10:15:41.946Z,76206.78
2022-09-21T10:18:38.165Z,76112.38
2022-09-21T10:21:15.695Z,76066.13
2022-09-21T10:23:47.693Z,76183.69
2022-09-21T10:26:15.098Z,76166.34
2022-09-21T10:28:58.257Z,76149.00
2022-09-21T10:31:30.197Z,76077.69
2022-09-21T10:34:13.217Z,76064.22
2022-09-21T10:36:40.694Z,76016.03
2022-09-21T10:39:23.619Z,76006.41
2022-09-21T10:41:56.982Z,75977.50
2022-09-21T10:44:27.407Z,76033.38
2022-09-21T10:49:28.742Z,76085.41
2022-09-21T10:51:58.317Z,76091.19
2022-09-21T10:54:32.650Z,76046.88
2022-09-21T10:57:04.207Z,76081.56
2022-09-21T10:59:37.091Z,76100.81
2022-09-21T11:02:26.638Z,76089.25
2022-09-21T11:04:59.035Z,76147.06
2022-09-21T11:07:39.875Z,76093.13
2022-09-21T11:10:15.446Z,76112.38
2022-09-21T11:13:16.975Z,76108.53
2022-09-21T11:15:54.780Z,76108.53
2022-09-21T11:18:24.203Z,76139.34
2022-09-21T11:21:06.005Z,76150.91
2022-09-21T11:23:44.170Z,76116.25
2022-09-21T11:26:46.079Z,76154.78
2022-09-21T11:29:23.303Z,76106.59
2022-09-21T11:32:05.843Z,76089.25
2022-09-21T11:35:03.848Z,76081.56
2022-09-21T11:38:09.939Z,76131.66
2022-09-21T11:40:42.535Z,76123.94
2022-09-21T11:43:29.626Z,76050.72
2022-09-21T11:46:07.728Z,76062.28
2022-09-21T11:48:41.120Z,76087.34
2022-09-21T11:51:49.717Z,76104.69
2022-09-21T11:54:46.757Z,76058.44
2022-09-21T11:57:19.085Z,76019.91
2022-09-21T12:00:09.511Z,76031.47
2022-09-21T12:02:42.326Z,75996.78
2022-09-21T12:05:19.492Z,75985.22
2022-09-21T12:07:49.743Z,75962.09
2022-09-21T12:10:39.680Z,76019.91
2022-09-21T12:13:28.242Z,76029.53
2022-09-21T12:15:56.227Z,76035.31
2022-09-21T12:18:47.372Z,76043.03
2022-09-21T12:21:28.932Z,75989.06
2022-09-21T12:24:01.479Z,75969.81
2022-09-21T12:26:38.802Z,76052.66
2022-09-21T12:29:30.903Z,76035.31
2022-09-21T12:32:04.897Z,76031.47
2022-09-21T12:34:42.072Z,76000.63
2022-09-21T12:37:17.105Z,75954.38
2022-09-21T12:39:54.120Z,76039.16
2022-09-21T12:42:35.023Z,76054.59
2022-09-21T12:45:07.974Z,76029.53
2022-09-21T12:47:37.694Z,75965.94
2022-09-21T12:50:36.026Z,75956.31
2022-09-21T12:53:03.969Z,75944.75
2022-09-21T12:55:33.406Z,75919.72
2022-09-21T12:58:23.597Z,75958.25
2022-09-21T13:01:02.162Z,75992.94
2022-09-21T13:03:31.898Z,76039.16
2022-09-21T13:06:22.983Z,76066.13
2022-09-21T13:08:50.690Z,76031.47
2022-09-21T13:11:21.565Z,76019.91
2022-09-21T13:13:52.953Z,75992.94
2022-09-21T13:16:27.804Z,76006.41
2022-09-21T13:19:16.115Z,76016.03
2022-09-21T13:21:44.263Z,76075.78
2022-09-21T13:24:30.524Z,75969.81
2022-09-21T13:27:06.588Z,75965.94
2022-09-21T13:29:35.974Z,76004.47
2022-09-21T13:32:11.708Z,75981.38
2022-09-21T13:34:43.498Z,75938.97
2022-09-21T13:37:11.128Z,75969.81
2022-09-21T13:39:43.286Z,75888.88
2022-09-21T13:42:28.459Z,75962.09
2022-09-21T13:44:56.054Z,75973.66
2022-09-21T13:47:34.611Z,75975.59
2022-09-21T13:50:11.635Z,76023.75
2022-09-21T13:52:45.398Z,76046.88
2022-09-21T13:55:21.470Z,76062.28
2022-09-21T13:57:54.443Z,76087.34
2022-09-21T14:00:41.187Z,76106.59
2022-09-21T14:03:39.348Z,76131.66
2022-09-21T14:06:16.621Z,76114.31
2022-09-21T14:09:00.433Z,76077.69
2022-09-21T14:11:40.619Z,76046.88
2022-09-21T14:14:33.011Z,76060.38
2022-09-21T14:17:01.364Z,76083.47
2022-09-21T14:19:29.722Z,76120.09
2022-09-21T14:22:06.222Z,76087.34
2022-09-21T14:24:43.902Z,76081.56
2022-09-21T14:27:41.141Z,76089.25
2022-09-21T14:30:20.211Z,76085.41
2022-09-21T14:33:02.261Z,76083.47
2022-09-21T14:35:37.614Z,76037.25
2022-09-21T14:38:24.127Z,76043.03
2022-09-21T14:40:54.734Z,76054.59
2022-09-21T14:43:28.199Z,76085.41
2022-09-21T14:46:03.784Z,76058.44
2022-09-21T14:48:42.553Z,76089.25
2022-09-21T14:51:41.913Z,76093.13
2022-09-21T14:54:26.224Z,76116.25
2022-09-21T14:57:02.140Z,76139.34
2022-09-21T14:59:41.021Z,76160.56
2022-09-21T15:02:22.237Z,76189.44
2022-09-21T15:05:04.276Z,76166.34
2022-09-21T15:08:10.332Z,76147.06
2022-09-21T15:10:58.071Z,76143.22
2022-09-21T15:13:41.149Z,76154.78
2022-09-21T15:16:26.759Z,76149.00
2022-09-21T15:19:16.357Z,76145.13
2022-09-21T15:21:51.904Z,76139.34
2022-09-21T15:24:25.001Z,76118.16
2022-09-21T15:26:54.745Z,76147.06
2022-09-21T15:29:27.585Z,76145.13
2022-09-21T15:31:55.283Z,76143.22
2022-09-21T15:34:23.460Z,76135.50
2022-09-21T15:36:52.132Z,76122.00
2022-09-21T15:39:30.356Z,76123.94
2022-09-21T15:42:09.347Z,76131.66
2022-09-21T15:44:38.504Z,76133.56
2022-09-21T15:47:12.630Z,76131.66
2022-09-21T15:49:40.442Z,76131.66
2022-09-21T15:52:13.020Z,76183.69
2022-09-21T15:55:09.282Z,76191.38
2022-09-21T15:57:41.803Z,76224.13
2022-09-21T16:00:14.811Z,76220.28
2022-09-21T16:02:50.748Z,76233.78
2022-09-21T16:05:22.429Z,76266.53
2022-09-21T16:07:49.243Z,76308.91
2022-09-21T16:10:31.169Z,76316.63
2022-09-21T16:13:33.032Z,76351.31
2022-09-21T16:16:07.643Z,76366.72
2022-09-21T16:18:43.139Z,76378.28
2022-09-21T16:21:27.578Z,76395.63
2022-09-21T16:23:57.477Z,76414.91
2022-09-21T16:26:24.123Z,76436.09
2022-09-21T16:29:17.052Z,76443.81
2022-09-21T16:31:50.051Z,76457.28
2022-09-21T16:34:17.701Z,76484.28
2022-09-21T16:36:45.759Z,76503.53
2022-09-21T16:39:15.501Z,76524.72
2022-09-21T16:41:55.122Z,76536.28
2022-09-21T16:44:26.035Z,76540.16
2022-09-21T16:46:59.339Z,76549.78
2022-09-21T16:49:30.635Z,76551.72
2022-09-21T16:51:58.304Z,76551.72
2022-09-21T16:54:27.147Z,76570.97
2022-09-21T16:56:57.553Z,76586.41
2022-09-21T16:59:25.361Z,76597.97
2022-09-21T17:01:57.347Z,76615.31
2022-09-21T17:04:28.961Z,76628.78
2022-09-21T17:06:56.550Z,76648.06
2022-09-21T17:09:33.716Z,76671.19
2022-09-21T17:12:02.122Z,76690.47
2022-09-21T17:14:35.449Z,76696.25
2022-09-21T17:17:19.325Z,76713.59
2022-09-21T17:19:49.887Z,76729.00
2022-09-21T17:22:18.231Z,76723.22
2022-09-21T17:24:51.757Z,76715.50
2022-09-21T17:27:23.853Z,76715.50
2022-09-21T17:29:51.100Z,76713.59
2022-09-21T17:32:22.575Z,76713.59
2022-09-21T17:35:18.880Z,76719.38
2022-09-21T17:37:46.075Z,76730.94
2022-09-21T17:40:13.699Z,76736.72
2022-09-21T17:42:46.512Z,76744.41
2022-09-21T17:45:37.643Z,76748.28
2022-09-21T17:48:05.458Z,76752.13
2022-09-21T17:50:32.297Z,76759.84
2022-09-21T17:53:18.215Z,76779.09
2022-09-21T17:55:54.571Z,76790.66
2022-09-21T17:59:06.133Z,76804.16
2022-09-21T18:01:39.715Z,76815.72
2022-09-21T18:04:08.348Z,76825.34
2022-09-21T18:06:35.406Z,76838.84
2022-09-21T18:09:02.617Z,76844.63
2022-09-21T18:11:36.218Z,76852.34
2022-09-21T18:14:15.401Z,76867.75
2022-09-21T18:17:20.848Z,76871.63
2022-09-21T18:20:21.377Z,76871.63
2022-09-21T18:23:21.647Z,76877.41
2022-09-21T18:25:56.503Z,76890.88
2022-09-21T18:28:40.027Z,76900.53
2022-09-21T18:31:21.964Z,76912.09
2022-09-21T18:33:56.811Z,76919.78
2022-09-21T18:36:37.612Z,76933.28
2022-09-21T18:39:43.254Z,76939.06
2022-09-21T18:42:38.047Z,76948.69
2022-09-21T18:45:27.273Z,76960.25
2022-09-21T18:48:13.341Z,76967.97
2022-09-21T18:50:57.432Z,76975.69
2022-09-21T18:53:52.884Z,76983.38
2022-09-21T18:56:19.924Z,76983.38
2022-09-21T18:58:46.872Z,76991.09
2022-09-21T19:01:16.510Z,76989.16
2022-09-21T19:03:43.933Z,76987.25
2022-09-21T19:06:48.209Z,76994.97
2022-09-21T19:09:38.179Z,76996.88
2022-09-21T19:12:07.701Z,77002.66
2022-09-21T19:15:12.509Z,77006.53
2022-09-21T19:17:51.054Z,77020.00
2022-09-21T19:20:39.436Z,77025.78
2022-09-21T19:23:33.766Z,77031.56
2022-09-21T19:26:23.646Z,77031.56
2022-09-21T19:29:28.186Z,77033.50
2022-09-21T19:31:55.087Z,77041.22
2022-09-21T19:34:22.034Z,77045.06
2022-09-21T19:36:48.851Z,77045.06
2022-09-21T19:39:16.295Z,77045.06
2022-09-21T19:42:02.139Z,77048.91
2022-09-21T19:44:47.898Z,77047.00
2022-09-21T19:47:26.329Z,77047.00
2022-09-21T19:49:54.686Z,77050.84
2022-09-21T19:52:34.469Z,77052.78
2022-09-21T19:55:20.902Z,77043.13
2022-09-21T19:58:06.666Z,77039.28
2022-09-21T20:00:33.662Z,77041.22
2022-09-21T20:03:08.027Z,77037.34
2022-09-21T20:05:59.136Z,77041.22
2022-09-21T20:08:52.501Z,77048.91
2022-09-21T20:11:41.429Z,77029.66
2022-09-21T20:14:31.351Z,77037.34
2022-09-21T20:17:04.476Z,77043.13
2022-09-21T20:19:58.577Z,77041.22
2022-09-21T20:22:35.449Z,77033.50
2022-09-21T20:25:11.704Z,77039.28
2022-09-21T20:27:49.197Z,77045.06
2022-09-21T20:30:17.777Z,77033.50
2022-09-21T20:32:48.786Z,77041.22
2022-09-21T20:35:18.099Z,77052.78
2022-09-21T20:37:45.473Z,77045.06
2022-09-21T20:40:13.693Z,77048.91
2022-09-21T20:42:41.444Z,77056.63
2022-09-21T20:45:10.186Z,77062.41
2022-09-21T20:47:37.214Z,77062.41
2022-09-21T20:50:05.214Z,77060.47
2022-09-21T20:52:31.891Z,77070.13
2022-09-21T20:54:58.538Z,77072.03
2022-09-21T20:57:25.540Z,77079.75
2022-09-21T20:59:52.192Z,77087.47
2022-09-21T21:02:18.978Z,77093.25
2022-09-21T21:04:45.616Z,77093.25
2022-09-21T21:07:12.301Z,77087.47
2022-09-21T21:09:38.939Z,77095.19
2022-09-21T21:12:05.726Z,77106.75
2022-09-21T21:14:32.403Z,77106.75
2022-09-21T21:16:59.142Z,77110.59
2022-09-21T21:19:26.194Z,77118.31
2022-09-21T21:21:52.801Z,77114.44
2022-09-21T21:24:38.459Z,77120.22
2022-09-21T21:27:16.993Z,77129.88
2022-09-21T21:29:50.290Z,77126.00
2022-09-21T21:32:18.793Z,77139.50
2022-09-21T21:34:45.764Z,77145.28
2022-09-21T21:37:13.921Z,77149.13
2022-09-21T21:39:40.621Z,77145.28
2022-09-21T21:42:07.633Z,77145.28
2022-09-21T21:44:34.271Z,77149.13
2022-09-21T21:47:15.449Z,77149.13
2022-09-21T21:49:48.431Z,77153.00
2022-09-21T21:52:15.637Z,77153.00
2022-09-21T21:54:42.354Z,77156.84
2022-09-21T21:57:10.151Z,77158.78
2022-09-21T21:59:37.111Z,77156.84
2022-09-21T22:02:04.865Z,77164.56
2022-09-21T22:04:32.023Z,77168.41
2022-09-21T22:06:58.641Z,77160.69
2022-09-21T22:09:25.900Z,77164.56
2022-09-21T22:11:52.622Z,77168.41
2022-09-21T22:14:19.486Z,77176.13
2022-09-21T22:16:46.524Z,77179.97
2022-09-21T22:19:13.325Z,77179.97
2022-09-21T22:21:46.036Z,77187.69
2022-09-21T22:24:14.954Z,77191.53
2022-09-21T22:26:44.243Z,77201.19
2022-09-21T22:29:13.415Z,77187.69
2022-09-21T22:31:43.396Z,77191.53
2022-09-21T22:34:12.475Z,77195.41
2022-09-21T22:36:39.997Z,77191.53
2022-09-21T22:39:08.327Z,77176.13
2022-09-21T22:41:38.023Z,77172.28
2022-09-21T22:44:05.148Z,77160.69
2022-09-21T22:46:32.790Z,77172.28
2022-09-21T22:49:00.603Z,77160.69
2022-09-21T22:51:28.652Z,77166.47
2022-09-21T22:53:55.803Z,77172.28
2022-09-21T22:56:28.006Z,77164.56
2022-09-21T22:58:58.296Z,77168.41
2022-09-21T23:01:40.148Z,77176.13
2022-09-21T23:04:13.306Z,77183.84
2022-09-21T23:06:42.564Z,77187.69
2022-09-21T23:09:20.174Z,77193.47
2022-09-21T23:11:53.138Z,77187.69
2022-09-21T23:14:21.212Z,77195.41
2022-09-21T23:16:48.409Z,77206.97
2022-09-21T23:19:18.130Z,77203.09
2022-09-21T23:21:49.384Z,77214.66
2022-09-21T23:24:16.730Z,77203.09
2022-09-21T23:26:43.605Z,77208.88
2022-09-21T23:29:12.869Z,77205.03
2022-09-21T23:31:44.447Z,77199.25
2022-09-21T23:34:14.960Z,77206.97
2022-09-21T23:36:42.553Z,77218.53
2022-09-21T23:39:14.030Z,77222.38
2022-09-21T23:41:41.272Z,77226.22
2022-09-21T23:44:08.141Z,77228.16
2022-09-21T23:46:37.192Z,77241.66
2022-09-21T23:49:04.975Z,77226.22
2022-09-21T23:51:31.930Z,77235.88
2022-09-21T23:53:59.757Z,77239.72
2022-09-21T23:56:28.223Z,77235.88
2022-09-21T23:58:55.437Z,77241.66
